sensor_id;sensor_type;location;lat;lon;timestamp;temperature;humidity
59301;DHT22;45073;52.740;6.784;2023-03-18T00:01:34;12.70;91.90
59301;DHT22;45073;52.740;6.784;2023-03-18T00:03:59;12.70;92.20
59301;DHT22;45073;52.740;6.784;2023-03-18T00:06:25;12.70;92.40
59301;DHT22;45073;52.740;6.784;2023-03-18T00:08:51;12.70;92.50
59301;DHT22;45073;52.740;6.784;2023-03-18T00:11:19;12.70;93.00
59301;DHT22;45073;52.740;6.784;2023-03-18T00:13:46;12.70;92.70
59301;DHT22;45073;52.740;6.784;2023-03-18T00:16:13;12.60;93.10
59301;DHT22;45073;52.740;6.784;2023-03-18T00:18:39;12.60;93.30
59301;DHT22;45073;52.740;6.784;2023-03-18T00:21:06;12.60;93.50
59301;DHT22;45073;52.740;6.784;2023-03-18T00:23:32;12.60;93.50
59301;DHT22;45073;52.740;6.784;2023-03-18T00:25:59;12.60;93.70
59301;DHT22;45073;52.740;6.784;2023-03-18T00:28:26;12.50;93.90
59301;DHT22;45073;52.740;6.784;2023-03-18T00:30:53;12.50;94.00
59301;DHT22;45073;52.740;6.784;2023-03-18T00:33:19;12.50;94.20
59301;DHT22;45073;52.740;6.784;2023-03-18T00:35:46;12.50;94.20
59301;DHT22;45073;52.740;6.784;2023-03-18T00:38:12;12.50;94.60
59301;DHT22;45073;52.740;6.784;2023-03-18T00:40:50;12.50;95.60
59301;DHT22;45073;52.740;6.784;2023-03-18T00:43:26;12.50;94.70
59301;DHT22;45073;52.740;6.784;2023-03-18T00:45:55;12.50;95.00
59301;DHT22;45073;52.740;6.784;2023-03-18T00:48:22;12.50;95.10
59301;DHT22;45073;52.740;6.784;2023-03-18T00:50:49;12.40;95.30
59301;DHT22;45073;52.740;6.784;2023-03-18T00:53:15;12.40;95.30
59301;DHT22;45073;52.740;6.784;2023-03-18T00:55:41;12.40;95.30
59301;DHT22;45073;52.740;6.784;2023-03-18T00:58:08;12.40;95.40
59301;DHT22;45073;52.740;6.784;2023-03-18T01:00:35;12.50;96.90
59301;DHT22;45073;52.740;6.784;2023-03-18T01:03:01;12.40;96.10
59301;DHT22;45073;52.740;6.784;2023-03-18T01:05:27;12.40;96.50
59301;DHT22;45073;52.740;6.784;2023-03-18T01:07:53;12.30;96.80
59301;DHT22;45073;52.740;6.784;2023-03-18T01:10:19;12.30;96.90
59301;DHT22;45073;52.740;6.784;2023-03-18T01:12:45;12.20;96.90
59301;DHT22;45073;52.740;6.784;2023-03-18T01:15:16;12.20;96.80
59301;DHT22;45073;52.740;6.784;2023-03-18T01:17:42;12.20;97.50
59301;DHT22;45073;52.740;6.784;2023-03-18T01:20:10;12.20;97.70
59301;DHT22;45073;52.740;6.784;2023-03-18T01:22:37;12.20;97.90
59301;DHT22;45073;52.740;6.784;2023-03-18T01:25:06;12.10;98.10
59301;DHT22;45073;52.740;6.784;2023-03-18T01:27:32;12.10;98.10
59301;DHT22;45073;52.740;6.784;2023-03-18T01:29:59;12.00;98.30
59301;DHT22;45073;52.740;6.784;2023-03-18T01:32:24;12.00;98.60
59301;DHT22;45073;52.740;6.784;2023-03-18T01:34:50;12.00;98.90
59301;DHT22;45073;52.740;6.784;2023-03-18T01:37:15;12.00;99.00
59301;DHT22;45073;52.740;6.784;2023-03-18T01:39:41;12.00;99.30
59301;DHT22;45073;52.740;6.784;2023-03-18T01:42:07;11.90;99.60
59301;DHT22;45073;52.740;6.784;2023-03-18T01:44:32;11.80;99.90
59301;DHT22;45073;52.740;6.784;2023-03-18T01:46:58;11.80;99.90
59301;DHT22;45073;52.740;6.784;2023-03-18T01:49:30;11.80;99.90
59301;DHT22;45073;52.740;6.784;2023-03-18T01:52:03;11.70;99.90
59301;DHT22;45073;52.740;6.784;2023-03-18T01:54:36;11.70;99.90
59301;DHT22;45073;52.740;6.784;2023-03-18T01:57:03;11.70;99.90
59301;DHT22;45073;52.740;6.784;2023-03-18T01:59:31;11.60;99.90
59301;DHT22;45073;52.740;6.784;2023-03-18T02:02:07;11.60;99.90
59301;DHT22;45073;52.740;6.784;2023-03-18T02:04:43;11.60;99.90
59301;DHT22;45073;52.740;6.784;2023-03-18T02:07:15;11.50;99.90
59301;DHT22;45073;52.740;6.784;2023-03-18T02:09:42;11.50;99.90
59301;DHT22;45073;52.740;6.784;2023-03-18T02:12:08;11.50;99.90
59301;DHT22;45073;52.740;6.784;2023-03-18T02:14:34;11.50;99.90
59301;DHT22;45073;52.740;6.784;2023-03-18T02:17:01;11.50;99.90
59301;DHT22;45073;52.740;6.784;2023-03-18T02:22:48;11.50;99.90
59301;DHT22;45073;52.740;6.784;2023-03-18T02:28:17;11.40;99.90
59301;DHT22;45073;52.740;6.784;2023-03-18T02:30:53;11.40;99.90
59301;DHT22;45073;52.740;6.784;2023-03-18T02:33:21;11.40;99.90
59301;DHT22;45073;52.740;6.784;2023-03-18T02:35:52;11.40;99.90
59301;DHT22;45073;52.740;6.784;2023-03-18T02:38:19;11.40;99.90
59301;DHT22;45073;52.740;6.784;2023-03-18T02:40:44;11.40;99.90
59301;DHT22;45073;52.740;6.784;2023-03-18T02:43:30;11.40;99.90
59301;DHT22;45073;52.740;6.784;2023-03-18T02:48:25;11.40;99.90
59301;DHT22;45073;52.740;6.784;2023-03-18T02:50:53;11.50;99.90
59301;DHT22;45073;52.740;6.784;2023-03-18T02:53:19;11.50;99.90
59301;DHT22;45073;52.740;6.784;2023-03-18T02:55:45;11.50;99.90
59301;DHT22;45073;52.740;6.784;2023-03-18T02:58:11;11.50;99.90
59301;DHT22;45073;52.740;6.784;2023-03-18T03:00:37;11.50;99.90
59301;DHT22;45073;52.740;6.784;2023-03-18T03:03:03;11.50;99.90
59301;DHT22;45073;52.740;6.784;2023-03-18T03:05:29;11.50;99.90
59301;DHT22;45073;52.740;6.784;2023-03-18T03:07:55;11.50;99.90
59301;DHT22;45073;52.740;6.784;2023-03-18T03:10:21;11.50;99.90
59301;DHT22;45073;52.740;6.784;2023-03-18T03:12:47;11.50;99.90
59301;DHT22;45073;52.740;6.784;2023-03-18T03:15:13;11.50;99.90
59301;DHT22;45073;52.740;6.784;2023-03-18T03:17:38;11.50;99.90
59301;DHT22;45073;52.740;6.784;2023-03-18T03:20:06;11.50;99.90
59301;DHT22;45073;52.740;6.784;2023-03-18T03:22:33;11.50;99.90
59301;DHT22;45073;52.740;6.784;2023-03-18T03:25:00;11.40;99.90
59301;DHT22;45073;52.740;6.784;2023-03-18T03:27:27;11.40;99.90
59301;DHT22;45073;52.740;6.784;2023-03-18T03:29:53;11.40;99.90
59301;DHT22;45073;52.740;6.784;2023-03-18T03:32:20;11.40;99.90
59301;DHT22;45073;52.740;6.784;2023-03-18T03:34:46;11.40;99.90
59301;DHT22;45073;52.740;6.784;2023-03-18T03:37:12;11.40;99.90
59301;DHT22;45073;52.740;6.784;2023-03-18T03:39:38;11.40;99.90
59301;DHT22;45073;52.740;6.784;2023-03-18T03:42:04;11.40;99.90
59301;DHT22;45073;52.740;6.784;2023-03-18T03:44:29;11.40;99.90
59301;DHT22;45073;52.740;6.784;2023-03-18T03:46:55;11.40;99.90
59301;DHT22;45073;52.740;6.784;2023-03-18T03:49:21;11.40;99.90
59301;DHT22;45073;52.740;6.784;2023-03-18T03:51:46;11.30;99.90
59301;DHT22;45073;52.740;6.784;2023-03-18T03:54:12;11.30;99.90
59301;DHT22;45073;52.740;6.784;2023-03-18T03:56:38;11.30;99.90
59301;DHT22;45073;52.740;6.784;2023-03-18T03:59:04;11.20;99.90
59301;DHT22;45073;52.740;6.784;2023-03-18T04:01:30;11.20;99.90
59301;DHT22;45073;52.740;6.784;2023-03-18T04:03:56;11.20;99.90
59301;DHT22;45073;52.740;6.784;2023-03-18T04:06:22;11.20;99.90
59301;DHT22;45073;52.740;6.784;2023-03-18T04:08:48;11.20;99.90
59301;DHT22;45073;52.740;6.784;2023-03-18T04:11:13;11.20;99.90
59301;DHT22;45073;52.740;6.784;2023-03-18T04:13:39;11.20;99.90
59301;DHT22;45073;52.740;6.784;2023-03-18T04:16:06;11.20;99.90
59301;DHT22;45073;52.740;6.784;2023-03-18T04:18:32;11.20;99.90
59301;DHT22;45073;52.740;6.784;2023-03-18T04:20:58;11.10;99.90
59301;DHT22;45073;52.740;6.784;2023-03-18T04:23:23;11.10;99.90
59301;DHT22;45073;52.740;6.784;2023-03-18T04:25:49;11.10;99.90
59301;DHT22;45073;52.740;6.784;2023-03-18T04:28:14;11.10;99.90
59301;DHT22;45073;52.740;6.784;2023-03-18T04:30:40;11.00;99.90
59301;DHT22;45073;52.740;6.784;2023-03-18T04:33:06;11.00;99.90
59301;DHT22;45073;52.740;6.784;2023-03-18T04:35:31;11.00;99.90
59301;DHT22;45073;52.740;6.784;2023-03-18T04:37:58;11.00;99.90
59301;DHT22;45073;52.740;6.784;2023-03-18T04:40:24;11.00;99.90
59301;DHT22;45073;52.740;6.784;2023-03-18T04:42:50;11.00;99.90
59301;DHT22;45073;52.740;6.784;2023-03-18T04:45:16;11.00;99.90
59301;DHT22;45073;52.740;6.784;2023-03-18T04:47:42;11.00;99.90
59301;DHT22;45073;52.740;6.784;2023-03-18T04:50:09;10.90;99.90
59301;DHT22;45073;52.740;6.784;2023-03-18T04:52:40;10.90;99.90
59301;DHT22;45073;52.740;6.784;2023-03-18T04:55:07;10.90;99.90
59301;DHT22;45073;52.740;6.784;2023-03-18T04:57:34;10.90;99.90
59301;DHT22;45073;52.740;6.784;2023-03-18T05:00:05;10.90;99.90
59301;DHT22;45073;52.740;6.784;2023-03-18T05:02:32;10.90;99.90
59301;DHT22;45073;52.740;6.784;2023-03-18T05:04:57;10.90;99.90
59301;DHT22;45073;52.740;6.784;2023-03-18T05:07:25;10.90;99.90
59301;DHT22;45073;52.740;6.784;2023-03-18T05:09:51;10.90;99.90
59301;DHT22;45073;52.740;6.784;2023-03-18T05:12:17;10.90;99.90
59301;DHT22;45073;52.740;6.784;2023-03-18T05:14:43;10.90;99.90
59301;DHT22;45073;52.740;6.784;2023-03-18T05:17:09;10.90;99.90
59301;DHT22;45073;52.740;6.784;2023-03-18T05:19:44;10.80;99.90
59301;DHT22;45073;52.740;6.784;2023-03-18T05:22:10;10.80;99.90
59301;DHT22;45073;52.740;6.784;2023-03-18T05:24:37;10.80;99.90
59301;DHT22;45073;52.740;6.784;2023-03-18T05:27:03;10.80;99.90
59301;DHT22;45073;52.740;6.784;2023-03-18T05:29:29;10.80;99.90
59301;DHT22;45073;52.740;6.784;2023-03-18T05:31:55;10.80;99.90
59301;DHT22;45073;52.740;6.784;2023-03-18T05:34:20;10.90;99.90
59301;DHT22;45073;52.740;6.784;2023-03-18T05:36:47;10.90;99.90
59301;DHT22;45073;52.740;6.784;2023-03-18T05:39:13;10.90;99.90
59301;DHT22;45073;52.740;6.784;2023-03-18T05:41:39;10.90;99.90
59301;DHT22;45073;52.740;6.784;2023-03-18T05:44:05;10.90;99.90
59301;DHT22;45073;52.740;6.784;2023-03-18T05:46:31;10.90;99.90
59301;DHT22;45073;52.740;6.784;2023-03-18T05:48:58;10.90;99.90
59301;DHT22;45073;52.740;6.784;2023-03-18T05:51:24;10.90;99.90
59301;DHT22;45073;52.740;6.784;2023-03-18T05:53:50;10.90;99.90
59301;DHT22;45073;52.740;6.784;2023-03-18T05:56:16;10.90;99.90
59301;DHT22;45073;52.740;6.784;2023-03-18T05:58:42;10.90;99.90
59301;DHT22;45073;52.740;6.784;2023-03-18T06:01:08;10.90;99.90
59301;DHT22;45073;52.740;6.784;2023-03-18T06:03:34;10.90;99.90
59301;DHT22;45073;52.740;6.784;2023-03-18T06:06:00;10.90;99.90
59301;DHT22;45073;52.740;6.784;2023-03-18T06:08:26;10.90;99.90
59301;DHT22;45073;52.740;6.784;2023-03-18T06:10:52;10.90;99.90
59301;DHT22;45073;52.740;6.784;2023-03-18T06:13:18;10.90;99.90
59301;DHT22;45073;52.740;6.784;2023-03-18T06:15:44;10.90;99.90
59301;DHT22;45073;52.740;6.784;2023-03-18T06:18:11;10.90;99.90
59301;DHT22;45073;52.740;6.784;2023-03-18T06:20:37;10.90;99.90
59301;DHT22;45073;52.740;6.784;2023-03-18T06:23:03;10.90;99.90
59301;DHT22;45073;52.740;6.784;2023-03-18T06:25:30;11.00;99.90
59301;DHT22;45073;52.740;6.784;2023-03-18T06:27:56;11.00;99.90
59301;DHT22;45073;52.740;6.784;2023-03-18T06:30:22;11.00;99.90
59301;DHT22;45073;52.740;6.784;2023-03-18T06:32:48;11.00;99.90
59301;DHT22;45073;52.740;6.784;2023-03-18T06:35:13;11.00;99.90
59301;DHT22;45073;52.740;6.784;2023-03-18T06:37:39;11.10;99.90
59301;DHT22;45073;52.740;6.784;2023-03-18T06:40:06;11.10;99.90
59301;DHT22;45073;52.740;6.784;2023-03-18T06:42:33;11.10;99.90
59301;DHT22;45073;52.740;6.784;2023-03-18T06:44:58;11.10;99.90
59301;DHT22;45073;52.740;6.784;2023-03-18T06:47:24;11.10;99.90
59301;DHT22;45073;52.740;6.784;2023-03-18T06:49:51;11.10;99.90
59301;DHT22;45073;52.740;6.784;2023-03-18T06:52:17;11.20;99.90
59301;DHT22;45073;52.740;6.784;2023-03-18T06:54:43;11.20;99.90
59301;DHT22;45073;52.740;6.784;2023-03-18T06:57:10;11.20;99.90
59301;DHT22;45073;52.740;6.784;2023-03-18T06:59:36;11.20;99.90
59301;DHT22;45073;52.740;6.784;2023-03-18T07:02:03;11.20;99.90
59301;DHT22;45073;52.740;6.784;2023-03-18T07:04:30;11.10;99.90
59301;DHT22;45073;52.740;6.784;2023-03-18T07:06:55;11.20;99.90
59301;DHT22;45073;52.740;6.784;2023-03-18T07:09:22;11.20;99.90
59301;DHT22;45073;52.740;6.784;2023-03-18T07:11:49;11.20;99.90
59301;DHT22;45073;52.740;6.784;2023-03-18T07:14:15;11.20;99.90
59301;DHT22;45073;52.740;6.784;2023-03-18T07:16:40;11.20;99.90
59301;DHT22;45073;52.740;6.784;2023-03-18T07:19:06;11.20;99.90
59301;DHT22;45073;52.740;6.784;2023-03-18T07:21:32;11.20;99.90
59301;DHT22;45073;52.740;6.784;2023-03-18T07:23:58;11.20;99.90
59301;DHT22;45073;52.740;6.784;2023-03-18T07:26:24;11.20;99.90
59301;DHT22;45073;52.740;6.784;2023-03-18T07:28:51;11.20;99.90
59301;DHT22;45073;52.740;6.784;2023-03-18T07:31:17;11.10;99.90
59301;DHT22;45073;52.740;6.784;2023-03-18T07:33:42;11.10;99.90
59301;DHT22;45073;52.740;6.784;2023-03-18T07:36:08;11.10;99.90
59301;DHT22;45073;52.740;6.784;2023-03-18T07:38:34;11.10;99.90
59301;DHT22;45073;52.740;6.784;2023-03-18T07:41:00;11.00;99.90
59301;DHT22;45073;52.740;6.784;2023-03-18T07:43:26;11.00;99.90
59301;DHT22;45073;52.740;6.784;2023-03-18T07:45:52;11.00;99.90
59301;DHT22;45073;52.740;6.784;2023-03-18T07:48:18;11.00;99.90
59301;DHT22;45073;52.740;6.784;2023-03-18T07:50:44;11.00;99.90
59301;DHT22;45073;52.740;6.784;2023-03-18T07:53:10;11.00;99.90
59301;DHT22;45073;52.740;6.784;2023-03-18T07:55:37;11.00;99.90
59301;DHT22;45073;52.740;6.784;2023-03-18T07:58:02;11.00;99.90
59301;DHT22;45073;52.740;6.784;2023-03-18T08:00:29;11.10;99.90
59301;DHT22;45073;52.740;6.784;2023-03-18T08:02:55;11.10;99.90
59301;DHT22;45073;52.740;6.784;2023-03-18T08:05:21;11.10;99.90
59301;DHT22;45073;52.740;6.784;2023-03-18T08:07:47;11.20;99.90
59301;DHT22;45073;52.740;6.784;2023-03-18T08:10:13;11.20;99.90
59301;DHT22;45073;52.740;6.784;2023-03-18T08:12:40;11.20;99.90
59301;DHT22;45073;52.740;6.784;2023-03-18T08:15:07;11.30;99.90
59301;DHT22;45073;52.740;6.784;2023-03-18T08:17:33;11.30;99.90
59301;DHT22;45073;52.740;6.784;2023-03-18T08:19:59;11.30;99.90
59301;DHT22;45073;52.740;6.784;2023-03-18T08:22:25;11.30;99.90
59301;DHT22;45073;52.740;6.784;2023-03-18T08:24:51;11.40;99.90
59301;DHT22;45073;52.740;6.784;2023-03-18T08:27:17;11.40;99.90
59301;DHT22;45073;52.740;6.784;2023-03-18T08:29:43;11.50;99.90
59301;DHT22;45073;52.740;6.784;2023-03-18T08:32:10;11.60;99.90
59301;DHT22;45073;52.740;6.784;2023-03-18T08:34:35;11.60;99.90
59301;DHT22;45073;52.740;6.784;2023-03-18T08:37:01;11.80;99.90
59301;DHT22;45073;52.740;6.784;2023-03-18T08:39:27;11.80;99.90
59301;DHT22;45073;52.740;6.784;2023-03-18T08:41:53;11.80;99.90
59301;DHT22;45073;52.740;6.784;2023-03-18T08:44:18;11.90;99.90
59301;DHT22;45073;52.740;6.784;2023-03-18T08:46:44;12.00;99.90
59301;DHT22;45073;52.740;6.784;2023-03-18T08:49:10;12.10;99.90
59301;DHT22;45073;52.740;6.784;2023-03-18T08:51:36;12.30;99.90
59301;DHT22;45073;52.740;6.784;2023-03-18T08:54:03;12.40;99.90
59301;DHT22;45073;52.740;6.784;2023-03-18T08:56:28;12.50;99.90
59301;DHT22;45073;52.740;6.784;2023-03-18T08:58:54;12.70;99.90
59301;DHT22;45073;52.740;6.784;2023-03-18T09:01:19;12.80;99.90
59301;DHT22;45073;52.740;6.784;2023-03-18T09:03:47;13.00;99.90
59301;DHT22;45073;52.740;6.784;2023-03-18T09:06:14;13.10;99.90
59301;DHT22;45073;52.740;6.784;2023-03-18T09:08:40;13.10;99.90
59301;DHT22;45073;52.740;6.784;2023-03-18T09:11:06;13.20;99.90
59301;DHT22;45073;52.740;6.784;2023-03-18T09:13:32;13.30;99.90
59301;DHT22;45073;52.740;6.784;2023-03-18T09:15:58;13.30;99.90
59301;DHT22;45073;52.740;6.784;2023-03-18T09:18:24;13.30;99.90
59301;DHT22;45073;52.740;6.784;2023-03-18T09:20:50;13.20;99.90
59301;DHT22;45073;52.740;6.784;2023-03-18T09:23:17;13.30;99.90
59301;DHT22;45073;52.740;6.784;2023-03-18T09:25:44;13.30;99.90
59301;DHT22;45073;52.740;6.784;2023-03-18T09:28:11;13.50;99.90
59301;DHT22;45073;52.740;6.784;2023-03-18T09:30:38;13.70;99.90
59301;DHT22;45073;52.740;6.784;2023-03-18T09:33:04;13.60;99.90
59301;DHT22;45073;52.740;6.784;2023-03-18T09:35:32;13.60;99.90
59301;DHT22;45073;52.740;6.784;2023-03-18T09:37:57;13.70;99.90
59301;DHT22;45073;52.740;6.784;2023-03-18T09:40:37;13.70;99.90
59301;DHT22;45073;52.740;6.784;2023-03-18T09:46:27;13.70;99.90
59301;DHT22;45073;52.740;6.784;2023-03-18T09:52:24;13.90;99.90
59301;DHT22;45073;52.740;6.784;2023-03-18T09:55:04;14.00;99.90
59301;DHT22;45073;52.740;6.784;2023-03-18T09:57:39;14.10;99.90
59301;DHT22;45073;52.740;6.784;2023-03-18T10:00:35;14.10;99.90
59301;DHT22;45073;52.740;6.784;2023-03-18T10:03:11;14.10;99.90
59301;DHT22;45073;52.740;6.784;2023-03-18T10:05:51;14.10;99.90
59301;DHT22;45073;52.740;6.784;2023-03-18T10:08:41;13.90;99.90
59301;DHT22;45073;52.740;6.784;2023-03-18T10:11:21;13.90;99.90
59301;DHT22;45073;52.740;6.784;2023-03-18T10:16:45;13.90;99.90
59301;DHT22;45073;52.740;6.784;2023-03-18T10:19:12;14.00;99.90
59301;DHT22;45073;52.740;6.784;2023-03-18T10:27:44;14.30;99.90
59301;DHT22;45073;52.740;6.784;2023-03-18T10:33:40;14.60;99.90
59301;DHT22;45073;52.740;6.784;2023-03-18T10:36:22;14.80;99.90
59301;DHT22;45073;52.740;6.784;2023-03-18T10:38:53;15.00;99.90
59301;DHT22;45073;52.740;6.784;2023-03-18T10:41:39;15.20;99.90
59301;DHT22;45073;52.740;6.784;2023-03-18T10:46:46;15.50;99.90
59301;DHT22;45073;52.740;6.784;2023-03-18T10:49:18;15.70;99.90
59301;DHT22;45073;52.740;6.784;2023-03-18T10:52:06;15.70;99.90
59301;DHT22;45073;52.740;6.784;2023-03-18T10:54:42;15.50;99.90
59301;DHT22;45073;52.740;6.784;2023-03-18T10:57:19;15.30;99.90
59301;DHT22;45073;52.740;6.784;2023-03-18T10:59:47;15.30;99.90
59301;DHT22;45073;52.740;6.784;2023-03-18T11:02:40;15.30;99.90
59301;DHT22;45073;52.740;6.784;2023-03-18T11:05:27;15.40;99.50
59301;DHT22;45073;52.740;6.784;2023-03-18T11:08:07;15.50;99.90
59301;DHT22;45073;52.740;6.784;2023-03-18T11:10:53;15.70;99.90
59301;DHT22;45073;52.740;6.784;2023-03-18T11:13:20;15.80;96.40
59301;DHT22;45073;52.740;6.784;2023-03-18T11:15:54;15.80;96.20
59301;DHT22;45073;52.740;6.784;2023-03-18T11:18:25;16.00;98.90
59301;DHT22;45073;52.740;6.784;2023-03-18T11:20:59;16.10;99.90
59301;DHT22;45073;52.740;6.784;2023-03-18T11:23:33;16.20;98.90
59301;DHT22;45073;52.740;6.784;2023-03-18T11:26:22;16.20;96.50
59301;DHT22;45073;52.740;6.784;2023-03-18T11:28:57;16.20;97.50
59301;DHT22;45073;52.740;6.784;2023-03-18T11:31:23;16.30;95.70
59301;DHT22;45073;52.740;6.784;2023-03-18T11:33:49;16.20;95.10
59301;DHT22;45073;52.740;6.784;2023-03-18T11:36:16;16.20;96.00
59301;DHT22;45073;52.740;6.784;2023-03-18T11:38:43;16.20;96.00
59301;DHT22;45073;52.740;6.784;2023-03-18T11:41:25;16.30;97.50
59301;DHT22;45073;52.740;6.784;2023-03-18T11:46:22;16.80;96.60
59301;DHT22;45073;52.740;6.784;2023-03-18T11:48:49;17.00;94.70
59301;DHT22;45073;52.740;6.784;2023-03-18T12:00:29;17.30;92.40
59301;DHT22;45073;52.740;6.784;2023-03-18T12:03:01;17.40;90.80
59301;DHT22;45073;52.740;6.784;2023-03-18T12:08:39;17.50;90.60
59301;DHT22;45073;52.740;6.784;2023-03-18T12:11:12;17.70;90.40
59301;DHT22;45073;52.740;6.784;2023-03-18T12:13:44;17.80;88.20
59301;DHT22;45073;52.740;6.784;2023-03-18T12:19:27;17.70;86.00
59301;DHT22;45073;52.740;6.784;2023-03-18T12:24:54;17.60;86.30
59301;DHT22;45073;52.740;6.784;2023-03-18T12:46:03;17.30;89.70
59301;DHT22;45073;52.740;6.784;2023-03-18T12:48:36;17.30;90.60
59301;DHT22;45073;52.740;6.784;2023-03-18T12:51:09;17.30;90.80
59301;DHT22;45073;52.740;6.784;2023-03-18T12:53:40;17.30;91.00
59301;DHT22;45073;52.740;6.784;2023-03-18T12:56:24;17.30;89.80
59301;DHT22;45073;52.740;6.784;2023-03-18T12:59:11;17.30;88.30
59301;DHT22;45073;52.740;6.784;2023-03-18T13:01:47;17.30;87.10
59301;DHT22;45073;52.740;6.784;2023-03-18T13:04:22;17.30;86.60
59301;DHT22;45073;52.740;6.784;2023-03-18T13:07:05;17.40;88.50
59301;DHT22;45073;52.740;6.784;2023-03-18T13:09:46;17.50;86.20
59301;DHT22;45073;52.740;6.784;2023-03-18T13:12:37;17.60;87.00
59301;DHT22;45073;52.740;6.784;2023-03-18T13:17:56;18.10;85.30
59301;DHT22;45073;52.740;6.784;2023-03-18T13:23:23;18.90;82.50
59301;DHT22;45073;52.740;6.784;2023-03-18T13:31:53;19.00;76.00
59301;DHT22;45073;52.740;6.784;2023-03-18T13:40:41;20.70;73.50
59301;DHT22;45073;52.740;6.784;2023-03-18T13:43:17;20.40;70.30
59301;DHT22;45073;52.740;6.784;2023-03-18T13:45:55;20.00;70.40
59301;DHT22;45073;52.740;6.784;2023-03-18T13:48:32;20.40;71.40
59301;DHT22;45073;52.740;6.784;2023-03-18T13:51:16;21.10;70.10
59301;DHT22;45073;52.740;6.784;2023-03-18T13:53:42;21.30;67.30
59301;DHT22;45073;52.740;6.784;2023-03-18T13:56:31;20.90;66.80
59301;DHT22;45073;52.740;6.784;2023-03-18T13:59:02;20.50;66.60
59301;DHT22;45073;52.740;6.784;2023-03-18T14:01:30;20.30;67.80
59301;DHT22;45073;52.740;6.784;2023-03-18T14:04:18;20.10;68.60
59301;DHT22;45073;52.740;6.784;2023-03-18T14:06:52;19.90;69.80
59301;DHT22;45073;52.740;6.784;2023-03-18T14:09:33;19.80;70.50
59301;DHT22;45073;52.740;6.784;2023-03-18T14:12:15;19.60;70.30
59301;DHT22;45073;52.740;6.784;2023-03-18T14:22:37;19.10;71.80
59301;DHT22;45073;52.740;6.784;2023-03-18T14:27:51;19.00;72.70
59301;DHT22;45073;52.740;6.784;2023-03-18T14:33:03;19.20;72.80
59301;DHT22;45073;52.740;6.784;2023-03-18T14:35:32;19.20;72.80
59301;DHT22;45073;52.740;6.784;2023-03-18T14:40:50;19.10;71.20
59301;DHT22;45073;52.740;6.784;2023-03-18T14:43:36;19.00;71.70
59301;DHT22;45073;52.740;6.784;2023-03-18T14:46:06;18.90;71.70
59301;DHT22;45073;52.740;6.784;2023-03-18T14:48:33;18.80;71.80
59301;DHT22;45073;52.740;6.784;2023-03-18T14:51:15;18.80;71.80
59301;DHT22;45073;52.740;6.784;2023-03-18T14:53:59;18.70;71.60
59301;DHT22;45073;52.740;6.784;2023-03-18T14:56:30;18.60;71.80
59301;DHT22;45073;52.740;6.784;2023-03-18T14:59:00;18.50;71.90
59301;DHT22;45073;52.740;6.784;2023-03-18T15:01:36;18.60;72.20
59301;DHT22;45073;52.740;6.784;2023-03-18T15:04:04;18.50;73.10
59301;DHT22;45073;52.740;6.784;2023-03-18T15:06:32;18.40;73.20
59301;DHT22;45073;52.740;6.784;2023-03-18T15:09:02;18.40;73.50
59301;DHT22;45073;52.740;6.784;2023-03-18T15:11:30;18.30;73.90
59301;DHT22;45073;52.740;6.784;2023-03-18T15:14:01;18.20;73.50
59301;DHT22;45073;52.740;6.784;2023-03-18T15:16:28;18.10;74.40
59301;DHT22;45073;52.740;6.784;2023-03-18T15:18:57;18.00;74.20
59301;DHT22;45073;52.740;6.784;2023-03-18T15:21:28;17.90;74.20
59301;DHT22;45073;52.740;6.784;2023-03-18T15:24:02;18.00;73.70
59301;DHT22;45073;52.740;6.784;2023-03-18T15:26:32;17.80;73.70
59301;DHT22;45073;52.740;6.784;2023-03-18T15:29:01;17.70;73.60
59301;DHT22;45073;52.740;6.784;2023-03-18T15:31:29;17.60;73.60
59301;DHT22;45073;52.740;6.784;2023-03-18T15:34:10;17.50;74.00
59301;DHT22;45073;52.740;6.784;2023-03-18T15:36:43;17.40;74.40
59301;DHT22;45073;52.740;6.784;2023-03-18T15:41:58;17.20;75.20
59301;DHT22;45073;52.740;6.784;2023-03-18T15:44:44;17.10;75.80
59301;DHT22;45073;52.740;6.784;2023-03-18T15:47:23;17.10;76.20
59301;DHT22;45073;52.740;6.784;2023-03-18T15:49:59;17.10;77.20
59301;DHT22;45073;52.740;6.784;2023-03-18T15:52:30;17.00;78.40
59301;DHT22;45073;52.740;6.784;2023-03-18T15:54:58;17.00;79.70
59301;DHT22;45073;52.740;6.784;2023-03-18T15:57:36;16.90;81.20
59301;DHT22;45073;52.740;6.784;2023-03-18T16:00:05;16.80;82.90
59301;DHT22;45073;52.740;6.784;2023-03-18T16:02:35;16.70;85.80
59301;DHT22;45073;52.740;6.784;2023-03-18T16:05:18;16.60;88.40
59301;DHT22;45073;52.740;6.784;2023-03-18T16:07:44;16.40;90.10
59301;DHT22;45073;52.740;6.784;2023-03-18T16:10:11;16.00;96.90
59301;DHT22;45073;52.740;6.784;2023-03-18T16:12:44;15.60;98.90
59301;DHT22;45073;52.740;6.784;2023-03-18T16:15:16;15.40;99.90
59301;DHT22;45073;52.740;6.784;2023-03-18T16:17:53;15.30;99.90
59301;DHT22;45073;52.740;6.784;2023-03-18T16:20:24;15.10;99.90
59301;DHT22;45073;52.740;6.784;2023-03-18T16:22:50;14.90;99.90
59301;DHT22;45073;52.740;6.784;2023-03-18T16:25:16;14.80;99.90
59301;DHT22;45073;52.740;6.784;2023-03-18T16:27:45;14.80;99.90
59301;DHT22;45073;52.740;6.784;2023-03-18T16:30:20;14.70;99.90
59301;DHT22;45073;52.740;6.784;2023-03-18T16:32:47;14.50;99.90
59301;DHT22;45073;52.740;6.784;2023-03-18T16:35:13;14.30;99.90
59301;DHT22;45073;52.740;6.784;2023-03-18T16:37:41;14.10;99.90
59301;DHT22;45073;52.740;6.784;2023-03-18T16:40:18;14.00;99.90
59301;DHT22;45073;52.740;6.784;2023-03-18T16:42:44;13.90;99.90
59301;DHT22;45073;52.740;6.784;2023-03-18T16:45:32;13.90;99.90
59301;DHT22;45073;52.740;6.784;2023-03-18T16:48:02;13.90;99.90
59301;DHT22;45073;52.740;6.784;2023-03-18T16:50:32;13.90;99.90
59301;DHT22;45073;52.740;6.784;2023-03-18T16:52:58;13.80;99.90
59301;DHT22;45073;52.740;6.784;2023-03-18T16:55:24;13.80;99.90
59301;DHT22;45073;52.740;6.784;2023-03-18T16:57:52;13.90;99.90
59301;DHT22;45073;52.740;6.784;2023-03-18T17:00:24;13.90;99.90
59301;DHT22;45073;52.740;6.784;2023-03-18T17:02:50;13.90;99.90
59301;DHT22;45073;52.740;6.784;2023-03-18T17:05:20;14.00;99.90
59301;DHT22;45073;52.740;6.784;2023-03-18T17:07:47;14.10;99.90
59301;DHT22;45073;52.740;6.784;2023-03-18T17:10:15;14.20;99.90
59301;DHT22;45073;52.740;6.784;2023-03-18T17:15:18;14.30;99.90
59301;DHT22;45073;52.740;6.784;2023-03-18T17:17:46;14.40;99.90
59301;DHT22;45073;52.740;6.784;2023-03-18T17:20:19;14.40;99.90
59301;DHT22;45073;52.740;6.784;2023-03-18T17:22:46;14.60;99.90
59301;DHT22;45073;52.740;6.784;2023-03-18T17:25:13;14.50;99.90
59301;DHT22;45073;52.740;6.784;2023-03-18T17:27:42;14.50;99.90
59301;DHT22;45073;52.740;6.784;2023-03-18T17:30:21;14.50;99.90
59301;DHT22;45073;52.740;6.784;2023-03-18T17:32:47;14.50;99.90